Broadway, North Carolina
Current Conditions -  °F | °C
As of 4:15 PM on Monday 24 Nov 2014 (Local Time) from KTTA Reporting Station
Light Rain Light Rain  
Wind Chill: 69°   Ceiling: Unl
Heat Index: 69°   Visibility: 7mi
Dew Point: 66°   Wind: 6mph
Humidity: 89%   Direction: 200°SSW
Pressure: 29.78"   Gusts: NA
Location:  35.46°N, 79.05°W
Report Text: KTTA 242115Z AUTO 20005KT 7SM -RA CLR 21/19 A2978 RMK AO2 T02060187
Loading
Personal Weather Stations






























Interactive Weather Map New forecast layout! Learn more

10-Day Weather Forecast

Advertisements
Track Severe Weather on mobile